If you wish to contribute or participate in the discussions about articles you are invited to join SKYbrary as a registered user

 Actions

Zabol Airport

From SKYbrary Wiki

OIZB
Airport
ICAO: OIZB – IATA: ACZ
Summary
Name Zabol Airport
Region Middle East
Territory Iran IR.gif
Location Zabol, Sistan and Baluchistan Province
Serving Zabol
Elevation 496.214 m
1,628 ft496.214 m
Coordinates 31° 5' 16.15" N, 61° 32' 34.26" E
Runways
Designator Length Width Surface ROPS
16/34 3002 m9,849.081 ft
45 m147.638 ft
ASP /


METAR
Observation OIZB 191000Z 04006KT CAVOK 35/09 Q1008
Station Zabol
Date/Time 19 April 2019 10:00:00
Wind direction 40°
Wind speed 06 kts
Lowest cloud amount clouds and visibility OK
Temperature 35°C
Dew point 9°C
Humidity 20%
QNH 1008 hPa
Weather condition n/a

Airport 9km4.86 nm
9,000 m
29,527.559 ft
northeast of the Iranian city of Zabol, close to the Afghan border.

Climatology

Hot Desert climate (Köppen climate classification BWh).

Maps

Terrain

Loading map...

Airport Layout

Loading map...


Accidents & Serious Incidents at or in vicinity of OIZB

None on SKYbrary